createdAt,value
2024-05-09T00:00:36.146Z,14.68
2024-05-09T00:01:41.574Z,15.27
2024-05-09T00:02:43.770Z,15.07
2024-05-09T00:03:46.994Z,16.33
2024-05-09T00:04:49.206Z,13.85
2024-05-09T00:05:51.325Z,14.63
2024-05-09T00:06:53.374Z,14.75
2024-05-09T00:07:55.420Z,14.68
2024-05-09T00:08:57.486Z,15.48
2024-05-09T00:09:59.601Z,16.10
2024-05-09T00:11:01.994Z,15.48
2024-05-09T00:12:04.490Z,15.25
2024-05-09T00:13:07.538Z,15.23
2024-05-09T00:14:09.891Z,14.02
2024-05-09T00:15:11.861Z,15.25
2024-05-09T00:16:13.958Z,15.23
2024-05-09T00:17:16.093Z,15.25
2024-05-09T00:18:18.379Z,16.42
2024-05-09T00:19:21.044Z,17.23
2024-05-09T00:20:28.570Z,15.68
2024-05-09T00:21:41.064Z,14.10
2024-05-09T00:22:43.290Z,15.63
2024-05-09T00:23:45.482Z,16.30
2024-05-09T00:24:47.500Z,15.40
2024-05-09T00:25:49.483Z,15.13
2024-05-09T00:26:51.503Z,12.93
2024-05-09T00:27:53.562Z,14.20
2024-05-09T00:28:55.595Z,15.73
2024-05-09T00:29:57.596Z,14.02
2024-05-09T00:30:59.651Z,13.43
2024-05-09T00:32:01.759Z,13.57
2024-05-09T00:33:05.334Z,16.88
2024-05-09T00:34:08.586Z,15.35
2024-05-09T00:35:11.031Z,14.93
2024-05-09T00:36:13.065Z,14.82
2024-05-09T00:37:15.133Z,16.35
2024-05-09T00:38:17.198Z,14.45
2024-05-09T00:39:19.237Z,15.68
2024-05-09T00:40:30.826Z,15.55
2024-05-09T00:41:40.353Z,17.15
2024-05-09T00:42:42.375Z,16.60
2024-05-09T00:43:44.385Z,15.98
2024-05-09T00:44:46.404Z,17.42
2024-05-09T00:45:48.708Z,16.10
2024-05-09T00:46:54.681Z,15.45
2024-05-09T00:47:57.826Z,14.80
2024-05-09T00:49:00.709Z,15.32
2024-05-09T00:50:04.136Z,16.15
2024-05-09T00:51:06.763Z,17.80
2024-05-09T00:52:09.539Z,17.08
2024-05-09T00:53:12.900Z,16.75
2024-05-09T00:54:15.569Z,15.75
2024-05-09T00:55:17.902Z,14.75
2024-05-09T00:56:21.242Z,16.42
2024-05-09T00:57:24.063Z,18.15
2024-05-09T00:58:27.555Z,16.52
2024-05-09T00:59:30.053Z,16.48
2024-05-09T01:00:38.764Z,16.50
2024-05-09T01:01:43.444Z,14.30
2024-05-09T01:02:45.717Z,15.35
2024-05-09T01:03:50.507Z,14.55
2024-05-09T01:04:53.504Z,15.30
2024-05-09T01:05:55.796Z,14.73
2024-05-09T01:06:57.893Z,14.55
2024-05-09T01:07:59.922Z,16.73
2024-05-09T01:09:01.954Z,15.77
2024-05-09T01:10:05.533Z,18.83
2024-05-09T01:11:09.273Z,16.92
2024-05-09T01:12:11.565Z,18.58
2024-05-09T01:13:13.754Z,18.45
2024-05-09T01:14:16.002Z,17.20
2024-05-09T01:15:18.023Z,16.75
2024-05-09T01:16:20.062Z,16.55
2024-05-09T01:17:22.276Z,17.10
2024-05-09T01:18:25.022Z,15.50
2024-05-09T01:19:28.475Z,15.65
2024-05-09T01:20:39.925Z,16.73
2024-05-09T01:21:45.016Z,14.98
2024-05-09T01:22:47.514Z,17.48
2024-05-09T01:23:49.544Z,17.17
2024-05-09T01:24:52.719Z,15.48
2024-05-09T01:25:54.764Z,14.50
2024-05-09T01:26:56.803Z,15.30
2024-05-09T01:27:59.023Z,16.10
2024-05-09T01:29:01.054Z,15.10
2024-05-09T01:30:05.343Z,16.00
2024-05-09T01:31:08.976Z,17.63
2024-05-09T01:32:11.194Z,15.38
2024-05-09T01:33:15.986Z,14.98
2024-05-09T01:34:18.583Z,16.00
2024-05-09T01:35:23.529Z,16.08
2024-05-09T01:36:25.633Z,15.00
2024-05-09T01:37:27.592Z,16.17
2024-05-09T01:38:29.729Z,16.10
2024-05-09T01:39:31.767Z,19.02
2024-05-09T01:40:38.254Z,17.67
2024-05-09T01:41:42.051Z,17.50
2024-05-09T01:42:44.022Z,17.83
2024-05-09T01:43:46.030Z,18.05
2024-05-09T01:44:48.059Z,16.73
2024-05-09T01:45:50.034Z,16.67
2024-05-09T01:46:52.095Z,15.55
2024-05-09T01:47:54.435Z,15.95
2024-05-09T01:48:56.705Z,15.75
2024-05-09T01:49:58.798Z,14.60
2024-05-09T01:51:00.917Z,14.57
2024-05-09T01:52:02.975Z,15.32
2024-05-09T01:53:05.063Z,15.68
2024-05-09T01:54:07.147Z,14.98
2024-05-09T01:55:09.269Z,13.32
2024-05-09T01:56:11.386Z,14.43
2024-05-09T01:57:13.451Z,14.43
2024-05-09T01:58:15.997Z,14.93
2024-05-09T01:59:18.052Z,17.27
2024-05-09T02:00:30.222Z,16.55
2024-05-09T02:01:56.217Z,14.13
2024-05-09T02:02:59.967Z,16.05
2024-05-09T02:04:02.535Z,15.57
2024-05-09T02:05:05.026Z,14.02
2024-05-09T02:06:07.304Z,13.85
2024-05-09T02:07:09.412Z,15.63
2024-05-09T02:08:15.830Z,14.88
2024-05-09T02:09:18.131Z,15.73
2024-05-09T02:10:26.199Z,16.17
2024-05-09T02:11:40.530Z,16.73
2024-05-09T02:12:42.673Z,17.60
2024-05-09T02:13:44.706Z,16.15
2024-05-09T02:14:46.728Z,19.05
2024-05-09T02:15:52.442Z,17.95
2024-05-09T02:16:54.581Z,16.70
2024-05-09T02:17:56.906Z,18.33
2024-05-09T02:18:59.123Z,16.35
2024-05-09T02:20:01.264Z,15.05
2024-05-09T02:21:03.535Z,17.27
2024-05-09T02:22:05.650Z,15.60
2024-05-09T02:23:08.433Z,16.50
2024-05-09T02:24:10.546Z,14.73
2024-05-09T02:25:12.589Z,15.98
2024-05-09T02:26:14.719Z,15.98
2024-05-09T02:27:16.738Z,16.02
2024-05-09T02:28:20.698Z,14.60
2024-05-09T02:29:22.880Z,14.45
2024-05-09T02:30:34.947Z,14.10
2024-05-09T02:31:41.561Z,13.40
2024-05-09T02:32:43.695Z,15.02
2024-05-09T02:33:46.050Z,16.85
2024-05-09T02:34:48.334Z,16.55
2024-05-09T02:35:50.363Z,15.18
2024-05-09T02:36:56.041Z,17.60
2024-05-09T02:37:58.088Z,18.00
2024-05-09T02:39:00.081Z,16.00
2024-05-09T02:40:02.224Z,17.90
2024-05-09T02:41:04.882Z,16.50
2024-05-09T02:42:06.947Z,17.35
2024-05-09T02:43:12.193Z,15.93
2024-05-09T02:44:14.903Z,16.50
2024-05-09T02:45:16.924Z,15.15
2024-05-09T02:46:18.932Z,14.65
2024-05-09T02:47:21.076Z,16.45
2024-05-09T02:48:23.523Z,15.55
2024-05-09T02:49:25.850Z,16.10
2024-05-09T02:50:34.556Z,16.35
2024-05-09T02:51:40.865Z,15.02
2024-05-09T02:52:42.925Z,14.43
2024-05-09T02:53:44.999Z,14.52
2024-05-09T02:54:47.070Z,15.48
2024-05-09T02:55:49.100Z,14.98
2024-05-09T02:56:51.223Z,14.68
2024-05-09T02:57:53.275Z,15.63
2024-05-09T02:58:56.779Z,16.95
2024-05-09T02:59:58.863Z,16.08
2024-05-09T03:01:01.359Z,17.20
2024-05-09T03:02:03.534Z,15.98
2024-05-09T03:03:06.134Z,15.98
2024-05-09T03:04:08.625Z,16.17
2024-05-09T03:05:10.795Z,14.82
2024-05-09T03:06:12.782Z,13.70
2024-05-09T03:07:14.768Z,13.95
2024-05-09T03:08:16.800Z,15.75
2024-05-09T03:09:18.813Z,14.50
2024-05-09T03:10:25.609Z,15.60
2024-05-09T03:11:30.745Z,14.95
2024-05-09T03:12:33.587Z,15.70
2024-05-09T03:13:38.623Z,16.60
2024-05-09T03:14:40.658Z,14.10
2024-05-09T03:15:43.156Z,14.23
2024-05-09T03:16:45.307Z,14.40
2024-05-09T03:17:47.445Z,14.18
2024-05-09T03:18:49.771Z,14.82
2024-05-09T03:19:51.842Z,13.75
2024-05-09T03:20:53.933Z,13.43
2024-05-09T03:21:55.970Z,12.00
2024-05-09T03:22:58.022Z,13.60
2024-05-09T03:24:00.102Z,13.95
2024-05-09T03:25:02.097Z,14.32
2024-05-09T03:26:04.260Z,13.30
2024-05-09T03:27:06.505Z,13.55
2024-05-09T03:28:08.541Z,14.20
2024-05-09T03:29:10.749Z,13.95
2024-05-09T03:30:25.603Z,14.30
2024-05-09T03:31:32.830Z,12.38
2024-05-09T03:32:34.894Z,13.27
2024-05-09T03:33:38.133Z,12.75
2024-05-09T03:34:40.230Z,12.23
2024-05-09T03:35:42.999Z,12.50
2024-05-09T03:36:45.663Z,13.68
2024-05-09T03:37:47.905Z,13.95
2024-05-09T03:38:51.006Z,14.88
2024-05-09T03:39:53.337Z,14.07
2024-05-09T03:40:55.402Z,13.55
2024-05-09T03:41:57.563Z,13.35
2024-05-09T03:42:59.610Z,13.60
2024-05-09T03:44:01.694Z,15.20
2024-05-09T03:45:03.816Z,15.02
2024-05-09T03:46:05.821Z,14.18
2024-05-09T03:47:07.828Z,14.52
2024-05-09T03:48:10.245Z,14.95
2024-05-09T03:49:12.786Z,15.40
2024-05-09T03:50:22.034Z,15.35
2024-05-09T03:51:27.944Z,13.80
2024-05-09T03:52:29.979Z,14.45
2024-05-09T03:53:32.086Z,14.40
2024-05-09T03:54:36.577Z,14.20
2024-05-09T03:55:39.060Z,14.10
2024-05-09T03:56:41.163Z,15.07
2024-05-09T03:57:43.242Z,15.63
2024-05-09T03:58:45.359Z,15.40
2024-05-09T03:59:47.374Z,14.90
2024-05-09T04:00:49.414Z,14.98
2024-05-09T04:01:51.598Z,14.85
2024-05-09T04:02:53.712Z,14.60
2024-05-09T04:03:56.272Z,15.02
2024-05-09T04:04:58.471Z,15.40
2024-05-09T04:06:00.507Z,15.45
2024-05-09T04:07:02.987Z,15.55
2024-05-09T04:08:05.316Z,14.90
2024-05-09T04:09:07.367Z,14.35
2024-05-09T04:10:16.980Z,14.45
2024-05-09T04:11:25.709Z,15.27
2024-05-09T04:12:27.865Z,16.52
2024-05-09T04:13:29.945Z,17.40
2024-05-09T04:14:32.005Z,15.65
2024-05-09T04:15:34.110Z,16.80
2024-05-09T04:16:36.115Z,16.45
2024-05-09T04:17:38.608Z,16.35
2024-05-09T04:18:40.854Z,16.25
2024-05-09T04:19:42.979Z,16.10
2024-05-09T04:20:45.075Z,16.42
2024-05-09T04:21:47.119Z,18.33
2024-05-09T04:22:49.208Z,17.65
2024-05-09T04:23:51.260Z,16.70
2024-05-09T04:24:53.267Z,16.85
2024-05-09T04:25:55.594Z,17.00
2024-05-09T04:26:57.602Z,16.75
2024-05-09T04:27:59.681Z,17.45
2024-05-09T04:29:01.818Z,15.55
2024-05-09T04:30:06.152Z,15.20
2024-05-09T04:31:09.814Z,15.45
2024-05-09T04:32:11.942Z,16.60
2024-05-09T04:33:14.968Z,15.52
2024-05-09T04:34:17.543Z,15.82
2024-05-09T04:35:22.340Z,16.27
2024-05-09T04:36:24.387Z,14.10
2024-05-09T04:37:26.479Z,15.93
2024-05-09T04:38:30.322Z,14.98
2024-05-09T04:39:32.347Z,15.48
2024-05-09T04:40:36.676Z,15.40
2024-05-09T04:41:39.672Z,15.40
2024-05-09T04:42:41.691Z,13.90
2024-05-09T04:43:43.723Z,14.77
2024-05-09T04:44:45.720Z,15.00
2024-05-09T04:45:47.711Z,15.68
2024-05-09T04:46:49.780Z,15.52
2024-05-09T04:47:52.179Z,15.52
2024-05-09T04:48:54.580Z,15.07
2024-05-09T04:49:56.768Z,14.65
2024-05-09T04:50:58.866Z,15.20
2024-05-09T04:52:01.562Z,14.15
2024-05-09T04:53:03.790Z,14.07
2024-05-09T04:54:08.438Z,15.57
2024-05-09T04:55:10.566Z,13.48
2024-05-09T04:56:12.581Z,13.60
2024-05-09T04:57:14.739Z,15.05
2024-05-09T04:58:16.742Z,12.95
2024-05-09T04:59:19.624Z,12.35
2024-05-09T05:00:28.933Z,13.77
2024-05-09T05:01:37.580Z,14.98
2024-05-09T05:02:39.687Z,13.88
2024-05-09T05:03:42.220Z,13.60
2024-05-09T05:04:44.638Z,14.10
2024-05-09T05:05:47.070Z,14.30
2024-05-09T05:06:49.166Z,13.80
2024-05-09T05:07:51.191Z,14.07
2024-05-09T05:08:53.280Z,13.77
2024-05-09T05:09:55.307Z,13.73
2024-05-09T05:10:57.388Z,14.05
2024-05-09T05:12:01.997Z,15.02
2024-05-09T05:13:17.982Z,14.48
2024-05-09T05:14:20.907Z,14.48
2024-05-09T05:15:22.990Z,14.55
2024-05-09T05:16:25.007Z,13.93
2024-05-09T05:17:27.237Z,13.77
2024-05-09T05:18:29.555Z,12.88
2024-05-09T05:19:31.780Z,14.55
2024-05-09T05:20:34.406Z,13.88
2024-05-09T05:21:36.485Z,13.98
2024-05-09T05:22:38.539Z,13.43
2024-05-09T05:23:43.701Z,12.77
2024-05-09T05:24:45.722Z,12.93
2024-05-09T05:25:48.821Z,13.57
2024-05-09T05:26:51.007Z,13.50
2024-05-09T05:27:53.143Z,13.00
2024-05-09T05:28:55.278Z,14.20
2024-05-09T05:29:57.302Z,13.88
2024-05-09T05:30:59.585Z,12.65
2024-05-09T05:32:01.704Z,13.13
2024-05-09T05:33:07.384Z,12.50
2024-05-09T05:34:09.650Z,13.38
2024-05-09T05:35:11.770Z,11.63
2024-05-09T05:36:13.823Z,12.80
2024-05-09T05:37:15.870Z,12.50
2024-05-09T05:38:19.114Z,12.73
2024-05-09T05:39:21.946Z,12.65
2024-05-09T05:40:32.400Z,12.18
2024-05-09T05:41:38.165Z,11.88
2024-05-09T05:42:40.216Z,11.30
2024-05-09T05:43:42.192Z,11.48
2024-05-09T05:44:44.223Z,12.57
2024-05-09T05:45:46.568Z,11.75
2024-05-09T05:46:48.620Z,10.57
2024-05-09T05:47:51.352Z,12.85
2024-05-09T05:48:53.785Z,12.18
2024-05-09T05:49:55.922Z,13.25
2024-05-09T05:50:59.454Z,12.02
2024-05-09T05:52:03.114Z,12.23
2024-05-09T05:53:06.085Z,11.95
2024-05-09T05:54:08.194Z,12.82
2024-05-09T05:55:10.240Z,11.75
2024-05-09T05:56:12.316Z,12.77
2024-05-09T05:57:15.348Z,11.75
2024-05-09T05:58:17.367Z,11.77
2024-05-09T05:59:19.430Z,11.63
2024-05-09T06:00:29.707Z,11.90
2024-05-09T06:01:39.374Z,11.55
2024-05-09T06:02:41.631Z,12.30
2024-05-09T06:03:43.974Z,12.35
2024-05-09T06:04:46.227Z,10.48
2024-05-09T06:05:48.367Z,11.18
2024-05-09T06:06:50.425Z,10.93
2024-05-09T06:07:52.651Z,10.52
2024-05-09T06:08:54.799Z,10.90
2024-05-09T06:09:56.860Z,11.30
2024-05-09T06:10:58.962Z,10.65
2024-05-09T06:12:01.286Z,10.65
2024-05-09T06:13:03.470Z,11.68
2024-05-09T06:14:05.624Z,10.30
2024-05-09T06:15:07.867Z,11.70
2024-05-09T06:16:10.095Z,11.27
2024-05-09T06:17:12.230Z,10.60
2024-05-09T06:18:15.828Z,12.13
2024-05-09T06:19:18.907Z,11.80
2024-05-09T06:20:31.242Z,11.40
2024-05-09T06:21:37.391Z,11.23
2024-05-09T06:22:39.391Z,10.10
2024-05-09T06:23:47.735Z,12.65
2024-05-09T06:24:49.800Z,12.48
2024-05-09T06:25:52.384Z,12.82
2024-05-09T06:26:54.540Z,12.80
2024-05-09T06:27:56.625Z,11.93
2024-05-09T06:29:00.702Z,12.00
2024-05-09T06:30:02.998Z,11.93
2024-05-09T06:31:05.679Z,12.13
2024-05-09T06:32:07.764Z,11.63
2024-05-09T06:33:12.289Z,10.57
2024-05-09T06:34:18.705Z,9.05
2024-05-09T06:35:20.883Z,11.70
2024-05-09T06:36:22.874Z,12.18
2024-05-09T06:37:24.863Z,11.65
2024-05-09T06:38:27.243Z,11.95
2024-05-09T06:39:29.281Z,12.02
2024-05-09T06:40:37.379Z,12.98
2024-05-09T06:41:41.522Z,10.82
2024-05-09T06:42:43.537Z,12.93
2024-05-09T06:43:45.592Z,13.15
2024-05-09T06:44:47.645Z,12.82
2024-05-09T06:45:52.444Z,12.07
2024-05-09T06:46:55.766Z,12.27
2024-05-09T06:48:00.443Z,12.20
2024-05-09T06:49:08.120Z,12.75
2024-05-09T06:50:19.624Z,13.38
2024-05-09T06:51:25.596Z,12.80
2024-05-09T06:52:27.583Z,13.05
2024-05-09T06:53:29.701Z,13.27
2024-05-09T06:54:31.828Z,12.98
2024-05-09T06:55:33.807Z,12.93
2024-05-09T06:56:36.212Z,13.52
2024-05-09T06:57:40.558Z,10.82
2024-05-09T06:58:44.408Z,12.20
2024-05-09T06:59:46.465Z,13.75
2024-05-09T07:00:48.559Z,14.52
2024-05-09T07:01:50.696Z,14.50
2024-05-09T07:02:52.853Z,14.10
2024-05-09T07:03:55.036Z,12.98
2024-05-09T07:04:57.360Z,15.13
2024-05-09T07:05:59.509Z,13.48
2024-05-09T07:07:01.522Z,13.43
2024-05-09T07:08:03.894Z,13.93
2024-05-09T07:09:05.950Z,13.73
2024-05-09T07:10:12.159Z,14.23
2024-05-09T07:11:16.977Z,13.70
2024-05-09T07:12:19.274Z,12.63
2024-05-09T07:13:21.312Z,14.00
2024-05-09T07:14:23.328Z,13.63
2024-05-09T07:15:25.392Z,13.13
2024-05-09T07:16:27.371Z,14.32
2024-05-09T07:17:29.617Z,13.63
2024-05-09T07:18:32.034Z,13.00
2024-05-09T07:19:34.141Z,12.95
2024-05-09T07:20:36.174Z,14.00
2024-05-09T07:21:38.194Z,14.52
2024-05-09T07:22:40.277Z,13.13
2024-05-09T07:23:45.164Z,14.15
2024-05-09T07:24:48.125Z,13.32
2024-05-09T07:25:50.150Z,12.68
2024-05-09T07:26:52.150Z,13.73
2024-05-09T07:27:54.153Z,12.88
2024-05-09T07:28:56.162Z,12.52
2024-05-09T07:29:58.172Z,13.32
2024-05-09T07:31:00.516Z,13.55
2024-05-09T07:32:02.534Z,12.18
2024-05-09T07:33:04.994Z,12.13
2024-05-09T07:34:07.412Z,12.15
2024-05-09T07:35:09.555Z,13.10
2024-05-09T07:36:11.588Z,12.75
2024-05-09T07:37:13.906Z,12.07
2024-05-09T07:38:16.207Z,11.48
2024-05-09T07:39:18.274Z,11.48
2024-05-09T07:41:25.212Z,11.13
2024-05-09T07:42:27.214Z,10.70
2024-05-09T07:43:29.202Z,13.60
2024-05-09T07:44:31.523Z,11.38
2024-05-09T07:47:47.639Z,11.07
2024-05-09T07:53:30.354Z,9.68
2024-05-09T07:53:47.412Z,10.57
2024-05-09T07:54:53.072Z,10.93
2024-05-09T07:55:56.228Z,10.63
2024-05-09T07:56:58.718Z,9.52
2024-05-09T07:58:00.824Z,10.07
2024-05-09T07:59:02.942Z,10.63
2024-05-09T08:00:06.531Z,9.73
2024-05-09T08:01:09.039Z,10.85
2024-05-09T08:02:11.464Z,9.23
2024-05-09T08:03:13.723Z,10.38
2024-05-09T08:04:15.827Z,11.43
2024-05-09T08:05:18.017Z,10.60
2024-05-09T08:06:20.180Z,9.63
2024-05-09T08:07:22.220Z,10.13
2024-05-09T08:08:24.262Z,10.20
2024-05-09T08:09:26.360Z,10.55
2024-05-09T08:10:29.243Z,10.60
2024-05-09T08:11:32.659Z,9.15
2024-05-09T08:12:34.967Z,8.90
2024-05-09T08:13:37.088Z,10.10
2024-05-09T08:14:39.129Z,9.48
2024-05-09T08:15:41.330Z,9.02
2024-05-09T08:16:43.414Z,9.98
2024-05-09T08:17:45.563Z,9.15
2024-05-09T08:18:47.736Z,9.00
2024-05-09T08:19:49.902Z,9.65
2024-05-09T08:20:52.033Z,9.05
2024-05-09T08:21:54.146Z,9.38
2024-05-09T08:22:56.149Z,8.70
2024-05-09T08:23:58.139Z,9.77
2024-05-09T08:25:01.497Z,9.65
2024-05-09T08:26:03.618Z,9.02
2024-05-09T08:27:05.669Z,9.85
2024-05-09T08:28:08.185Z,8.30
2024-05-09T08:29:10.982Z,8.02
2024-05-09T08:30:21.574Z,9.18
2024-05-09T08:31:27.413Z,9.18
2024-05-09T08:32:32.325Z,9.07
2024-05-09T08:33:34.471Z,8.48
2024-05-09T08:34:36.631Z,8.38
2024-05-09T08:35:38.672Z,8.43
2024-05-09T08:36:40.940Z,8.32
2024-05-09T08:37:43.711Z,9.27
2024-05-09T08:38:45.784Z,9.13
2024-05-09T08:39:47.790Z,8.82
2024-05-09T08:40:52.320Z,7.55
2024-05-09T08:41:54.366Z,8.63
2024-05-09T08:42:57.409Z,6.82
2024-05-09T08:43:59.460Z,8.23
2024-05-09T08:45:01.870Z,7.10
2024-05-09T08:46:04.199Z,7.10
2024-05-09T08:47:09.216Z,7.82
2024-05-09T08:48:12.083Z,7.35
2024-05-09T08:49:15.731Z,7.05
2024-05-09T08:50:29.216Z,7.03
2024-05-09T08:51:38.285Z,7.28
2024-05-09T08:52:40.350Z,6.45
2024-05-09T08:53:42.372Z,6.90
2024-05-09T08:54:45.184Z,6.35
2024-05-09T08:55:47.511Z,7.20
2024-05-09T08:56:50.058Z,7.07
2024-05-09T08:57:53.105Z,7.63
2024-05-09T08:58:56.673Z,8.40
2024-05-09T09:00:03.505Z,8.45
2024-05-09T09:01:05.929Z,8.68
2024-05-09T09:02:11.982Z,7.53
2024-05-09T09:03:18.566Z,9.07
2024-05-09T09:04:22.177Z,8.35
2024-05-09T09:05:25.849Z,9.13
2024-05-09T09:06:28.353Z,9.27
2024-05-09T09:07:32.004Z,8.57
2024-05-09T09:08:34.011Z,7.60
2024-05-09T09:09:40.843Z,8.13
2024-05-09T09:10:43.240Z,7.60
2024-05-09T09:11:45.636Z,7.90
2024-05-09T09:12:58.047Z,6.72
2024-05-09T09:14:00.100Z,7.20
2024-05-09T09:15:02.096Z,7.07
2024-05-09T09:16:04.451Z,7.88
2024-05-09T09:17:13.121Z,7.65
2024-05-09T09:18:16.277Z,8.32
2024-05-09T09:19:18.592Z,7.97
2024-05-09T09:20:26.396Z,7.70
2024-05-09T09:21:35.567Z,8.27
2024-05-09T09:22:37.632Z,7.97
2024-05-09T09:23:39.908Z,7.32
2024-05-09T09:24:41.952Z,7.45
2024-05-09T09:25:44.055Z,7.20
2024-05-09T09:26:46.103Z,7.70
2024-05-09T09:27:48.287Z,7.47
2024-05-09T09:28:50.465Z,8.10
2024-05-09T09:29:52.470Z,7.05
2024-05-09T09:31:00.698Z,7.90
2024-05-09T09:32:04.065Z,7.97
2024-05-09T09:33:08.080Z,7.80
2024-05-09T09:34:10.299Z,6.97
2024-05-09T09:35:12.468Z,6.05
2024-05-09T09:36:14.514Z,6.68
2024-05-09T09:37:19.278Z,6.15
2024-05-09T09:38:22.998Z,6.07
2024-05-09T09:39:27.556Z,6.70
2024-05-09T09:40:35.088Z,6.40
2024-05-09T09:41:40.117Z,6.25
2024-05-09T09:42:43.296Z,6.15
2024-05-09T09:43:45.479Z,6.45
2024-05-09T09:44:57.674Z,6.78
2024-05-09T09:46:06.312Z,6.53
2024-05-09T09:47:09.592Z,6.88
2024-05-09T09:48:12.387Z,6.30
2024-05-09T09:49:15.585Z,6.47
2024-05-09T09:50:24.053Z,5.15
2024-05-09T09:51:33.817Z,5.38
2024-05-09T09:52:36.430Z,6.45
2024-05-09T09:53:38.713Z,5.75
2024-05-09T09:54:41.893Z,5.90
2024-05-09T09:55:43.956Z,5.13
2024-05-09T09:56:49.105Z,5.22
2024-05-09T09:57:52.146Z,5.57
2024-05-09T09:58:56.366Z,5.45
2024-05-09T09:59:58.883Z,4.85
2024-05-09T10:01:01.037Z,5.43
2024-05-09T10:02:03.244Z,6.03
2024-05-09T10:03:05.510Z,4.75
2024-05-09T10:04:07.778Z,5.38
2024-05-09T10:05:10.018Z,5.68
2024-05-09T10:06:12.348Z,5.28
2024-05-09T10:07:14.695Z,5.38
2024-05-09T10:08:17.850Z,5.43
2024-05-09T10:09:20.108Z,4.43
2024-05-09T10:10:30.012Z,5.50
2024-05-09T10:11:41.866Z,4.53
2024-05-09T10:13:08.099Z,4.90
2024-05-09T10:14:10.534Z,4.80
2024-05-09T10:15:12.619Z,5.10
2024-05-09T10:16:20.159Z,4.65
2024-05-09T10:17:22.346Z,6.05
2024-05-09T10:18:34.220Z,5.13
2024-05-09T10:19:36.623Z,5.05
2024-05-09T10:20:45.168Z,4.32
2024-05-09T10:21:47.260Z,4.70
2024-05-09T10:22:50.516Z,5.15
2024-05-09T10:24:00.039Z,5.97
2024-05-09T10:25:05.963Z,5.25
2024-05-09T10:26:08.173Z,4.97
2024-05-09T10:27:10.350Z,4.15
2024-05-09T10:28:12.623Z,5.13
2024-05-09T10:29:15.292Z,5.78
2024-05-09T10:30:29.576Z,6.05
2024-05-09T10:31:38.430Z,5.28
2024-05-09T10:32:41.044Z,4.50
2024-05-09T10:33:46.362Z,5.95
2024-05-09T10:35:01.272Z,5.40
2024-05-09T10:36:03.927Z,4.82
2024-05-09T10:37:06.298Z,5.68
2024-05-09T10:38:08.441Z,5.70
2024-05-09T10:39:13.403Z,5.85
2024-05-09T10:41:19.898Z,5.10
2024-05-09T10:42:22.239Z,5.13
2024-05-09T10:43:24.809Z,5.32
2024-05-09T10:44:26.877Z,4.57
2024-05-09T10:45:28.902Z,5.57
2024-05-09T10:46:31.045Z,5.25
2024-05-09T10:47:33.271Z,6.47
2024-05-09T10:48:38.349Z,5.63
2024-05-09T10:49:40.663Z,5.05
2024-05-09T10:50:43.825Z,5.53
2024-05-09T10:51:47.251Z,5.57
2024-05-09T10:52:52.713Z,5.38
2024-05-09T10:53:56.752Z,5.78
2024-05-09T10:55:00.354Z,5.90
2024-05-09T10:56:02.915Z,6.28
2024-05-09T10:57:05.180Z,5.78
2024-05-09T10:58:16.972Z,6.28
2024-05-09T10:59:19.071Z,6.03
2024-05-09T11:00:27.655Z,6.35
2024-05-09T11:01:35.548Z,5.82
2024-05-09T11:02:37.858Z,6.68
2024-05-09T11:03:40.337Z,6.80
2024-05-09T11:04:45.166Z,7.15
2024-05-09T11:05:47.631Z,7.72
2024-05-09T11:06:49.717Z,6.55
2024-05-09T11:07:51.717Z,6.15
2024-05-09T11:08:53.846Z,6.72
2024-05-09T11:09:55.876Z,6.63
2024-05-09T11:10:59.682Z,7.57
2024-05-09T11:12:02.809Z,7.03
2024-05-09T11:13:05.062Z,6.18
2024-05-09T11:14:13.445Z,6.70
2024-05-09T11:15:16.553Z,7.50
2024-05-09T11:16:20.474Z,7.00
2024-05-09T11:17:23.159Z,7.75
2024-05-09T11:18:28.978Z,6.35
2024-05-09T11:19:33.505Z,7.25
2024-05-09T11:20:37.501Z,6.75
2024-05-09T11:21:39.825Z,5.82
2024-05-09T11:22:43.279Z,5.47
2024-05-09T11:23:45.458Z,5.60
2024-05-09T11:24:47.635Z,5.70
2024-05-09T11:25:50.344Z,6.25
2024-05-09T11:26:52.456Z,5.65
2024-05-09T11:27:58.131Z,5.10
2024-05-09T11:29:00.183Z,6.05
2024-05-09T11:30:02.369Z,5.88
2024-05-09T11:31:09.865Z,5.82
2024-05-09T11:32:13.687Z,5.40
2024-05-09T11:33:16.809Z,5.47
2024-05-09T11:34:18.920Z,6.07
2024-05-09T11:35:21.170Z,5.85
2024-05-09T11:36:23.156Z,6.05
2024-05-09T11:37:25.306Z,5.55
2024-05-09T11:38:27.370Z,5.38
2024-05-09T11:39:29.561Z,5.78
2024-05-09T11:41:35.962Z,5.30
2024-05-09T11:42:38.461Z,5.93
2024-05-09T11:43:40.457Z,5.63
2024-05-09T11:44:42.467Z,5.90
2024-05-09T11:45:44.474Z,5.72
2024-05-09T11:46:46.559Z,5.20
2024-05-09T11:47:48.861Z,5.85
2024-05-09T11:48:51.091Z,5.68
2024-05-09T11:49:54.787Z,5.90
2024-05-09T11:50:56.891Z,5.18
2024-05-09T11:51:59.067Z,4.88
2024-05-09T11:53:01.085Z,5.25
2024-05-09T11:54:03.083Z,5.50
2024-05-09T11:55:05.277Z,4.68
2024-05-09T11:56:07.394Z,3.78
2024-05-09T11:57:09.789Z,5.00
2024-05-09T11:58:13.751Z,4.05
2024-05-09T11:59:15.783Z,5.53
2024-05-09T12:00:25.220Z,5.57
2024-05-09T12:01:35.587Z,5.40
2024-05-09T12:02:37.720Z,5.20
2024-05-09T12:03:39.915Z,5.53
2024-05-09T12:04:42.187Z,5.30
2024-05-09T12:05:44.463Z,6.10
2024-05-09T12:06:46.587Z,6.82
2024-05-09T12:07:48.598Z,5.28
2024-05-09T12:08:50.663Z,5.43
2024-05-09T12:09:52.717Z,4.95
2024-05-09T12:10:54.988Z,5.50
2024-05-09T12:11:57.236Z,5.72
2024-05-09T12:12:59.301Z,4.75
2024-05-09T12:14:01.328Z,5.10
2024-05-09T12:15:03.423Z,5.70
2024-05-09T12:16:05.916Z,5.60
2024-05-09T12:17:08.051Z,5.72
2024-05-09T12:18:10.299Z,5.82
2024-05-09T12:19:17.172Z,6.00
2024-05-09T12:20:28.537Z,5.43
2024-05-09T12:21:37.355Z,6.50
2024-05-09T12:22:39.359Z,7.00
2024-05-09T12:23:41.371Z,6.60
2024-05-09T12:24:43.392Z,6.82
2024-05-09T12:25:45.467Z,5.95
2024-05-09T12:26:47.527Z,5.05
2024-05-09T12:27:49.596Z,6.30
2024-05-09T12:28:51.649Z,6.75
2024-05-09T12:29:53.685Z,5.25
2024-05-09T12:30:55.709Z,6.00
2024-05-09T12:31:57.801Z,6.15
2024-05-09T12:32:59.921Z,6.05
2024-05-09T12:34:02.143Z,5.80
2024-05-09T12:35:04.368Z,6.13
2024-05-09T12:36:06.555Z,4.80
2024-05-09T12:37:08.583Z,5.32
2024-05-09T12:38:10.644Z,5.63
2024-05-09T12:39:12.628Z,6.10
2024-05-09T12:40:22.908Z,6.20
2024-05-09T12:41:32.811Z,6.15
2024-05-09T12:42:34.890Z,6.10
2024-05-09T12:43:36.958Z,5.30
2024-05-09T12:44:38.974Z,5.90
2024-05-09T12:45:41.041Z,5.50
2024-05-09T12:46:43.113Z,5.40
2024-05-09T12:47:45.129Z,5.97
2024-05-09T12:48:47.376Z,5.57
2024-05-09T12:49:49.682Z,5.10
2024-05-09T12:50:51.891Z,5.28
2024-05-09T12:51:53.996Z,5.55
2024-05-09T12:52:56.100Z,5.75
2024-05-09T12:53:58.048Z,4.57
2024-05-09T12:55:00.093Z,4.97
2024-05-09T12:56:03.849Z,5.03
2024-05-09T12:57:06.957Z,5.18
2024-05-09T12:58:09.192Z,6.18
2024-05-09T12:59:11.364Z,5.20
2024-05-09T13:00:23.365Z,4.80
2024-05-09T13:01:30.314Z,5.72
2024-05-09T13:02:32.579Z,5.55
2024-05-09T13:03:34.953Z,4.82
2024-05-09T13:04:37.252Z,5.07
2024-05-09T13:05:41.522Z,5.43
2024-05-09T13:06:43.887Z,5.43
2024-05-09T13:07:47.348Z,4.72
2024-05-09T13:08:49.428Z,4.70
2024-05-09T13:09:52.689Z,4.10
2024-05-09T13:10:54.877Z,4.65
2024-05-09T13:11:57.167Z,4.30
2024-05-09T13:13:00.116Z,4.88
2024-05-09T13:14:02.420Z,5.70
2024-05-09T13:15:04.696Z,5.10
2024-05-09T13:16:07.011Z,4.82
2024-05-09T13:17:09.348Z,4.55
2024-05-09T13:18:11.794Z,4.57
2024-05-09T13:19:13.900Z,4.25
2024-05-09T13:20:25.694Z,3.97
2024-05-09T13:21:31.641Z,3.28
2024-05-09T13:22:33.648Z,4.30
2024-05-09T13:23:37.904Z,3.85
2024-05-09T13:24:39.909Z,4.32
2024-05-09T13:25:42.027Z,3.92
2024-05-09T13:26:44.021Z,4.32
2024-05-09T13:27:46.028Z,3.92
2024-05-09T13:28:48.067Z,4.03
2024-05-09T13:29:50.046Z,3.75
2024-05-09T13:30:52.119Z,3.92
2024-05-09T13:31:54.202Z,3.60
2024-05-09T13:32:56.324Z,4.28
2024-05-09T13:33:58.616Z,4.20
2024-05-09T13:35:00.688Z,4.22
2024-05-09T13:36:02.794Z,3.90
2024-05-09T13:37:04.918Z,4.05
2024-05-09T13:38:07.031Z,3.92
2024-05-09T13:39:09.064Z,3.63
2024-05-09T13:40:14.218Z,4.13
2024-05-09T13:41:16.418Z,4.60
2024-05-09T13:42:18.413Z,3.97
2024-05-09T13:43:22.990Z,4.20
2024-05-09T13:44:25.344Z,4.00
2024-05-09T13:45:27.361Z,4.30
2024-05-09T13:46:29.467Z,3.92
2024-05-09T13:47:31.813Z,3.30
2024-05-09T13:48:34.699Z,3.25
2024-05-09T13:49:37.025Z,3.92
2024-05-09T13:50:39.453Z,3.22
2024-05-09T13:51:41.554Z,4.10
2024-05-09T13:52:43.571Z,3.47
2024-05-09T13:53:45.631Z,3.50
2024-05-09T13:54:47.774Z,3.47
2024-05-09T13:55:49.941Z,2.78